Time;durP1;ratioP1;P1;durP2;ratioP2;P2;SDS_P1;SDS_P2;PMS_P1;PMS_P2;Temp;Humidity;BMP_temperature;BMP_pressure;BME280_temperature;BME280_humidity;BME280_pressure;Samples;Min_cycle;Max_cycle;Signal;HPM_P1;HPM_P2
2023/03/11 00:00:42;;;;;;;8.57;1.20;;;;;;;-145.18;100.00;47801.31;5050676;28;20049;-74
2023/03/11 00:03:08;;;;;;;7.40;1.17;;;;;;;-145.18;100.00;47785.69;5030940;28;20037;-74
2023/03/11 00:05:38;;;;;;;6.63;1.03;;;;;;;-145.18;100.00;47811.09;5030439;28;20049;-74
2023/03/11 00:08:06;;;;;;;7.05;1.60;;;;;;;-145.18;100.00;47801.31;5030404;28;20398;-74
2023/03/11 00:10:39;;;;;;;9.60;0.90;;;;;;;-145.18;100.00;47809.13;5030497;28;20103;-74
2023/03/11 00:13:06;;;;;;;8.57;1.85;;;;;;;-145.18;100.00;47797.41;5048296;28;20481;-74
2023/03/11 00:15:32;;;;;;;12.07;1.85;;;;;;;-145.18;100.00;47795.44;5050354;28;20039;-74
2023/03/11 00:17:57;;;;;;;8.17;1.33;;;;;;;-145.18;100.00;47777.88;5033125;28;20045;-74
2023/03/11 00:20:33;;;;;;;7.10;1.20;;;;;;;-145.18;100.00;47779.81;5030247;28;20033;-74
2023/03/11 00:22:59;;;;;;;10.70;1.13;;;;;;;-145.18;100.00;47777.88;5030636;28;20076;-74
2023/03/11 00:25:28;;;;;;;4.68;1.23;;;;;;;-145.18;100.00;47779.81;5030300;28;20091;-74
2023/03/11 00:27:53;;;;;;;5.10;1.23;;;;;;;-145.18;100.00;47762.22;5041794;28;20032;-74
2023/03/11 00:30:19;;;;;;;11.03;1.50;;;;;;;-145.18;100.00;47764.19;5050132;28;20091;-73
2023/03/11 00:32:47;;;;;;;6.10;1.02;;;;;;;-145.18;100.00;47768.09;5049545;28;20486;-74
2023/03/11 00:35:16;;;;;;;10.48;1.55;;;;;;;-145.18;100.00;47781.78;5032395;28;20500;-74
2023/03/11 00:37:44;;;;;;;3.88;0.93;;;;;;;-145.18;100.00;47766.13;5043998;28;20532;-74
2023/03/11 00:40:17;;;;;;;12.48;1.65;;;;;;;-145.18;100.00;47773.97;5030324;28;20128;-74
2023/03/11 00:42:42;;;;;;;13.45;1.63;;;;;;;-145.18;100.00;47779.81;5046820;28;20037;-74
2023/03/11 00:45:08;;;;;;;3.80;1.00;;;;;;;-145.18;100.00;47787.63;5050306;28;20536;-74
2023/03/11 00:47:34;;;;;;;8.93;1.60;;;;;;;-145.18;100.00;47785.69;5049437;28;20033;-73
2023/03/11 00:49:59;;;;;;;8.37;1.30;;;;;;;-145.18;100.00;47775.91;5044236;28;20124;-74
2023/03/11 00:52:25;;;;;;;7.53;1.20;;;;;;;-145.18;100.00;47785.69;5032253;28;20041;-73
2023/03/11 00:54:50;;;;;;;11.67;1.17;;;;;;;-145.18;100.00;47777.88;5030213;28;20068;-73
2023/03/11 00:57:15;;;;;;;9.40;1.83;;;;;;;-145.18;100.00;47791.53;5030194;28;20509;-73
2023/03/11 00:59:41;;;;;;;6.27;1.10;;;;;;;-145.18;100.00;47785.69;5029626;28;20057;-73
2023/03/11 01:02:06;;;;;;;7.97;1.47;;;;;;;-145.18;100.00;47789.59;5023057;28;20112;-73
2023/03/11 01:04:31;;;;;;;11.07;1.43;;;;;;;-145.18;100.00;47793.50;5049613;28;20049;-73
2023/03/11 01:06:57;;;;;;;8.97;1.47;;;;;;;-145.18;100.00;47785.69;5042912;28;20045;-73
2023/03/11 01:09:22;;;;;;;8.07;1.60;;;;;;;-145.18;100.00;47770.03;5033788;28;20106;-74
2023/03/11 01:11:47;;;;;;;7.57;1.27;;;;;;;-145.18;100.00;47799.34;5042072;28;20478;-73
2023/03/11 01:14:13;;;;;;;6.63;1.07;;;;;;;-145.18;100.00;47783.72;5053879;28;20043;-73
2023/03/11 01:16:38;;;;;;;5.90;1.20;;;;;;;-145.18;100.00;47805.22;5052918;28;20086;-73
2023/03/11 01:19:04;;;;;;;5.63;1.13;;;;;;;-145.18;100.00;47777.88;5053555;28;20082;-73
2023/03/11 01:21:29;;;;;;;8.00;1.10;;;;;;;-145.18;100.00;47789.59;5047369;28;20528;-73
2023/03/11 01:23:55;;;;;;;7.97;1.30;;;;;;;-145.18;100.00;47793.50;5033740;28;20120;-73
2023/03/11 01:26:20;;;;;;;9.47;1.73;;;;;;;-145.18;100.00;47773.97;5033159;28;20068;-73
2023/03/11 01:28:45;;;;;;;6.17;1.30;;;;;;;-145.18;100.00;47773.97;5033740;28;20036;-73
2023/03/11 01:31:11;;;;;;;9.87;1.33;;;;;;;-145.18;100.00;47779.81;5036593;28;20493;-73
2023/03/11 01:33:36;;;;;;;10.67;1.10;;;;;;;-145.18;100.00;47781.78;5035081;28;20029;-73
2023/03/11 01:36:02;;;;;;;12.47;1.40;;;;;;;-145.18;100.00;47772.00;5053336;28;20060;-73
2023/03/11 01:38:28;;;;;;;2.93;0.90;;;;;;;-145.18;100.00;47783.72;5053034;28;20512;-73
2023/03/11 01:40:53;;;;;;;7.70;1.10;;;;;;;-145.18;100.00;47787.63;5052835;28;20029;-73
2023/03/11 01:43:54;;;;;;;10.00;1.30;;;;;;;-145.18;100.00;47762.22;5033134;28;20041;-73
2023/03/11 01:46:50;;;;;;;5.85;1.20;;;;;;;-145.18;100.00;47783.72;4933190;29;20071;-72
2023/03/11 01:49:16;;;;;;;8.45;1.15;;;;;;;-145.18;100.00;47801.31;5032984;28;20041;-72
2023/03/11 01:51:44;;;;;;;5.20;1.03;;;;;;;-145.18;100.00;47811.09;5039468;28;20025;-72
2023/03/11 01:54:20;;;;;;;7.82;1.13;;;;;;;-145.18;100.00;47789.59;5053199;28;20028;-72
2023/03/11 01:56:48;;;;;;;11.98;1.25;;;;;;;-145.18;100.00;47803.25;5052741;28;20094;-72
2023/03/11 01:59:18;;;;;;;7.32;1.10;;;;;;;-145.18;100.00;47793.50;5032068;28;20071;-72
2023/03/11 02:02:00;;;;;;;5.47;1.38;;;;;;;-145.18;100.00;47809.13;5039156;28;20036;-72
2023/03/11 02:04:28;;;;;;;7.15;1.23;;;;;;;-145.18;100.00;47791.53;5052817;28;20180;-72
2023/03/11 02:06:55;;;;;;;10.77;1.30;;;;;;;-145.18;100.00;47805.22;5052506;28;20044;-71
2023/03/11 02:09:23;;;;;;;5.70;0.82;;;;;;;-145.18;100.00;47838.44;5052785;28;20124;-72
2023/03/11 02:11:49;;;;;;;9.20;1.08;;;;;;;-145.18;100.00;47799.34;5045021;28;20402;-72
2023/03/11 02:14:14;;;;;;;2.55;0.90;;;;;;;-145.18;100.00;47793.50;5034111;28;20045;-71
2023/03/11 02:16:40;;;;;;;9.73;1.40;;;;;;;-145.18;100.00;47803.25;5032551;28;20037;-71
2023/03/11 02:19:21;;;;;;;5.43;1.00;;;;;;;-145.18;100.00;47785.69;5035779;28;20028;-71
2023/03/11 02:21:48;;;;;;;10.13;1.00;;;;;;;-145.18;100.00;47805.22;5045385;28;20034;-70
2023/03/11 02:24:21;;;;;;;6.97;1.15;;;;;;;-145.18;100.00;47777.88;5032570;28;20037;-70
2023/03/11 02:27:04;;;;;;;15.63;1.77;;;;;;;-145.18;100.00;47762.22;5032576;28;20026;-70
2023/03/11 02:29:32;;;;;;;4.28;1.13;;;;;;;-145.18;100.00;47773.97;5032479;28;20042;-70
2023/03/11 02:32:00;;;;;;;6.65;1.30;;;;;;;-145.18;100.00;47770.03;5039970;28;20025;-69
2023/03/11 02:34:29;;;;;;;4.75;1.45;;;;;;;-145.18;100.00;47781.78;5052045;28;20040;-69
2023/03/11 02:36:54;;;;;;;7.88;0.98;;;;;;;-145.18;100.00;47768.09;5052099;28;20107;-69
2023/03/11 02:39:34;;;;;;;6.37;1.30;;;;;;;-145.18;100.00;47777.88;5044264;28;20120;-69
2023/03/11 02:42:04;;;;;;;8.35;2.03;;;;;;;-145.18;100.00;47772.00;5039884;28;20099;-69
2023/03/11 02:44:29;;;;;;;8.80;2.08;;;;;;;-145.18;100.00;47773.97;5051866;28;20032;-68
2023/03/11 02:46:55;;;;;;;6.80;2.03;;;;;;;-145.18;100.00;47760.28;5051844;28;20033;-68
2023/03/11 02:49:21;;;;;;;9.53;1.80;;;;;;;-145.18;100.00;47760.28;5052006;28;20044;-68
2023/03/11 02:51:47;;;;;;;5.30;1.90;;;;;;;-145.18;100.00;47789.59;5025005;28;20042;-68
2023/03/11 02:54:12;;;;;;;5.83;1.20;;;;;;;-145.18;100.00;47770.03;5032051;28;20038;-68
2023/03/11 02:56:37;;;;;;;9.20;1.50;;;;;;;-145.18;100.00;47754.41;5031775;28;20029;-68
2023/03/11 02:59:03;;;;;;;5.23;1.30;;;;;;;-145.18;100.00;47762.22;5031788;28;20509;-67
2023/03/11 03:01:35;;;;;;;6.93;1.05;;;;;;;-145.18;100.00;47768.09;5270979;23;20053;-81
2023/03/11 03:04:00;;;;;;;9.95;1.40;;;;;;;-145.18;100.00;47797.41;4913571;23;20085;-67
2023/03/11 03:06:27;;;;;;;4.83;1.13;;;;;;;-145.18;100.00;47789.59;4992366;28;20074;-67
2023/03/11 03:08:53;;;;;;;5.25;1.10;;;;;;;-145.18;100.00;47772.00;4995286;28;20030;-67
2023/03/11 03:11:18;;;;;;;11.03;1.67;;;;;;;-145.18;100.00;47770.03;5012029;28;20053;-67
2023/03/11 03:13:43;;;;;;;5.13;1.10;;;;;;;-145.18;100.00;47768.09;5011994;28;20044;-67
2023/03/11 03:16:09;;;;;;;5.00;1.17;;;;;;;-145.18;100.00;47787.63;5011703;28;20072;-67
2023/03/11 03:18:34;;;;;;;7.13;1.10;;;;;;;-145.18;100.00;47801.31;5011505;28;20104;-67
2023/03/11 03:21:00;;;;;;;3.03;1.07;;;;;;;-145.18;100.00;47805.22;4992457;28;20058;-67
2023/03/11 03:23:25;;;;;;;3.73;1.00;;;;;;;-145.18;100.00;47805.22;4974677;28;20034;-67
2023/03/11 03:25:50;;;;;;;5.80;1.10;;;;;;;-145.18;100.00;47785.69;4991942;28;20062;-67
2023/03/11 03:28:16;;;;;;;4.97;0.93;;;;;;;-145.18;100.00;47795.44;4992043;28;20066;-68
2023/03/11 03:30:41;;;;;;;9.90;1.10;;;;;;;-145.18;100.00;47813.03;4991434;28;20489;-68
2023/03/11 03:33:07;;;;;;;3.57;0.70;;;;;;;-145.18;100.00;47813.03;4991557;28;20046;-68
2023/03/11 03:35:33;;;;;;;4.82;0.85;;;;;;;-145.18;100.00;47799.34;4992371;28;20049;-69
2023/03/11 03:38:00;;;;;;;5.87;0.70;;;;;;;-145.18;100.00;47828.66;4991790;28;20042;-69
2023/03/11 03:40:25;;;;;;;6.28;1.00;;;;;;;-145.18;100.00;47824.75;5005846;28;20066;-70
2023/03/11 03:42:50;;;;;;;4.07;1.30;;;;;;;-145.18;100.00;47826.72;5010949;28;20397;-71
2023/03/11 03:45:16;;;;;;;4.93;0.83;;;;;;;-145.18;100.00;47822.81;5011661;28;20073;-71
2023/03/11 03:47:41;;;;;;;5.17;0.90;;;;;;;-145.18;100.00;47826.72;5011304;28;20026;-71
2023/03/11 03:50:09;;;;;;;6.40;1.07;;;;;;;-145.18;100.00;47809.13;4999271;28;20034;-72
2023/03/11 03:52:35;;;;;;;4.22;1.00;;;;;;;-145.18;100.00;47826.72;4991716;28;20030;-72
2023/03/11 03:55:01;;;;;;;3.63;0.70;;;;;;;-145.18;100.00;47816.94;4991457;28;20042;-73
2023/03/11 03:57:28;;;;;;;7.33;0.93;;;;;;;-145.18;100.00;47820.84;4991593;28;20089;-73
2023/03/11 03:59:53;;;;;;;3.17;0.82;;;;;;;-145.18;100.00;47828.66;5002901;28;20037;-73
2023/03/11 04:02:18;;;;;;;4.47;0.87;;;;;;;-145.18;100.00;47822.81;5020902;28;20081;-73
2023/03/11 04:04:44;;;;;;;4.53;1.27;;;;;;;-145.18;100.00;47809.13;5030964;28;20030;-73
2023/03/11 04:07:09;;;;;;;10.43;1.03;;;;;;;-145.18;100.00;47807.16;5030503;28;20040;-73
2023/03/11 04:09:38;;;;;;;6.57;1.00;;;;;;;-145.18;100.00;47789.59;5021430;28;20038;-72
2023/03/11 04:12:04;;;;;;;9.65;1.52;;;;;;;-145.18;100.00;47813.03;5010616;28;20117;-72
2023/03/11 04:14:29;;;;;;;8.03;1.40;;;;;;;-145.18;100.00;47779.81;5017365;28;20129;-71
2023/03/11 04:16:56;;;;;;;5.13;1.10;;;;;;;-145.18;100.00;47785.69;5030410;28;20452;-71
2023/03/11 04:19:22;;;;;;;5.70;1.52;;;;;;;-145.18;100.00;47762.22;5003627;28;20130;-71
2023/03/11 04:21:47;;;;;;;7.30;1.30;;;;;;;-145.18;100.00;47773.97;5010705;28;20120;-71
2023/03/11 04:24:12;;;;;;;5.53;1.20;;;;;;;-145.18;100.00;47764.19;5010447;28;20394;-71
2023/03/11 04:26:38;;;;;;;3.23;0.90;;;;;;;-145.18;100.00;47764.19;5010866;28;20041;-71
2023/03/11 04:29:03;;;;;;;7.20;1.03;;;;;;;-145.18;100.00;47777.88;5016614;28;20059;-71
2023/03/11 04:31:29;;;;;;;6.60;1.20;;;;;;;-145.18;100.00;47766.13;5030558;28;20045;-71
2023/03/11 04:33:54;;;;;;;10.23;1.60;;;;;;;-145.18;100.00;47770.03;5026119;28;20037;-70
2023/03/11 04:36:19;;;;;;;9.87;1.50;;;;;;;-145.18;100.00;47785.69;5010662;28;20060;-71
2023/03/11 04:38:45;;;;;;;2.80;1.13;;;;;;;-145.18;100.00;47777.88;5013751;28;20486;-70
2023/03/11 04:41:11;;;;;;;3.33;1.20;;;;;;;-145.18;100.00;47768.09;5029547;28;20041;-71
2023/03/11 04:43:36;;;;;;;10.30;2.20;;;;;;;-145.18;100.00;47791.53;5030116;28;20437;-71
2023/03/11 04:46:01;;;;;;;4.57;1.03;;;;;;;-145.18;100.00;47768.09;5030199;28;20065;-70
2023/03/11 04:48:27;;;;;;;4.43;0.93;;;;;;;-145.18;100.00;47797.41;5027957;28;20041;-70
2023/03/11 04:50:52;;;;;;;6.83;1.23;;;;;;;-145.18;100.00;47773.97;5010462;28;20100;-70
2023/03/11 04:53:18;;;;;;;6.67;1.20;;;;;;;-145.18;100.00;47809.13;5010965;28;20052;-69
2023/03/11 04:55:43;;;;;;;2.20;1.00;;;;;;;-145.18;100.00;47775.91;5012772;28;20045;-69
2023/03/11 04:58:09;;;;;;;5.87;0.93;;;;;;;-145.18;100.00;47772.00;5029954;28;20059;-69
2023/03/11 05:00:34;;;;;;;5.57;1.13;;;;;;;-145.18;100.00;47793.50;5011604;28;20125;-69
2023/03/11 05:02:59;;;;;;;3.70;0.97;;;;;;;-145.18;100.00;47803.25;5024463;28;20398;-69
2023/03/11 05:05:25;;;;;;;6.13;0.97;;;;;;;-145.18;100.00;47795.44;5029764;28;20117;-69
2023/03/11 05:07:50;;;;;;;9.40;1.07;;;;;;;-145.18;100.00;47799.34;5029682;28;20452;-69
2023/03/11 05:10:21;;;;;;;9.60;1.10;;;;;;;-145.18;100.00;47797.41;5014817;28;20069;-69
2023/03/11 05:12:47;;;;;;;8.32;1.33;;;;;;;-145.18;100.00;47809.13;5009454;28;20038;-68
2023/03/11 05:15:12;;;;;;;3.40;0.95;;;;;;;-145.18;100.00;47783.72;5029777;28;20507;-69
2023/03/11 05:17:38;;;;;;;9.67;1.20;;;;;;;-145.18;100.00;47816.94;5011955;28;20034;-69
2023/03/11 05:20:06;;;;;;;5.43;0.93;;;;;;;-145.18;100.00;47824.75;5010296;28;20120;-69
2023/03/11 05:22:31;;;;;;;5.95;0.88;;;;;;;-145.18;100.00;47811.09;5006590;28;20042;-68
2023/03/11 05:24:57;;;;;;;3.80;0.90;;;;;;;-145.18;100.00;47846.25;4991693;28;20038;-69
2023/03/11 05:27:22;;;;;;;3.33;1.13;;;;;;;-145.18;100.00;47842.34;5009051;28;20033;-69
2023/03/11 05:29:47;;;;;;;6.23;1.40;;;;;;;-145.18;100.00;47850.16;5019997;28;20120;-68
2023/03/11 05:32:13;;;;;;;4.43;1.23;;;;;;;-145.18;100.00;47863.84;5014206;28;20065;-69
2023/03/11 05:34:39;;;;;;;6.57;1.80;;;;;;;-145.18;100.00;47824.75;5008626;28;20038;-68
2023/03/11 05:37:04;;;;;;;8.40;1.80;;;;;;;-145.18;100.00;47836.47;5006033;28;20057;-68
2023/03/11 05:39:30;;;;;;;5.03;1.80;;;;;;;-145.18;100.00;47816.94;5007731;28;20034;-69
2023/03/11 05:41:55;;;;;;;4.30;1.50;;;;;;;-145.18;100.00;47846.25;4959191;28;20030;-69
2023/03/11 05:44:21;;;;;;;8.97;1.40;;;;;;;-145.18;100.00;47842.34;5009166;28;20066;-69
2023/03/11 05:46:46;;;;;;;8.60;1.63;;;;;;;-145.18;100.00;47857.97;5009266;28;20038;-69
2023/03/11 05:49:12;;;;;;;10.80;1.47;;;;;;;-145.18;100.00;47836.47;5007565;28;20037;-69
2023/03/11 05:51:37;;;;;;;5.63;1.57;;;;;;;-145.18;100.00;47816.94;5009128;28;20032;-69
2023/03/11 05:54:03;;;;;;;12.30;3.40;;;;;;;-145.18;100.00;47859.94;5013382;28;20559;-69
2023/03/11 05:56:28;;;;;;;33.90;10.90;;;;;;;-145.18;100.00;47826.72;5012376;28;20571;-69
2023/03/11 05:58:56;;;;;;;31.63;11.13;;;;;;;-145.18;100.00;47840.38;5012671;28;20038;-70
2023/03/11 06:01:21;;;;;;;16.08;6.05;;;;;;;-145.18;100.00;47844.28;5012963;28;20041;-70
2023/03/11 06:03:47;;;;;;;16.17;3.23;;;;;;;-145.18;100.00;47844.28;5014107;28;20058;-70
2023/03/11 06:06:13;;;;;;;10.43;1.83;;;;;;;-145.18;100.00;47844.28;4996606;28;20043;-70
2023/03/11 06:08:38;;;;;;;12.07;2.50;;;;;;;-145.18;100.00;47828.66;4994852;28;20033;-70
2023/03/11 06:11:07;;;;;;;8.73;1.97;;;;;;;-145.18;100.00;47867.75;5012521;28;20045;-70
2023/03/11 06:13:33;;;;;;;7.13;1.65;;;;;;;-145.18;100.00;47832.56;5012598;28;20037;-70
2023/03/11 06:15:59;;;;;;;7.30;2.73;;;;;;;-145.18;100.00;47850.16;5016981;28;20034;-71
2023/03/11 06:18:25;;;;;;;11.33;2.47;;;;;;;-145.18;100.00;47869.69;4995483;28;20263;-71
2023/03/11 06:20:57;;;;;;;8.73;4.60;;;;;;;-145.18;100.00;47840.38;5005538;28;20031;-71
2023/03/11 06:23:23;;;;;;;11.18;3.00;;;;;;;-145.18;100.00;47850.16;4993206;28;20497;-71
2023/03/11 06:25:59;;;;;;;4.83;2.23;;;;;;;-145.18;100.00;47863.84;5028817;28;20033;-71
2023/03/11 06:28:24;;;;;;;5.38;2.17;;;;;;;-145.18;100.00;47871.66;5032403;28;20774;-71
2023/03/11 06:30:50;;;;;;;6.17;1.80;;;;;;;-145.18;100.00;47871.66;5028062;28;20053;-72
2023/03/11 06:33:15;;;;;;;3.17;1.60;;;;;;;-145.18;100.00;47863.84;4993280;28;20057;-70
2023/03/11 06:35:41;;;;;;;5.33;1.30;;;;;;;-145.18;100.00;47885.31;5011118;28;20041;-71
2023/03/11 06:38:06;;;;;;;9.47;1.70;;;;;;;-145.18;100.00;47873.59;5010647;28;20030;-71
2023/03/11 06:40:32;;;;;;;6.73;2.30;;;;;;;-145.18;100.00;47861.88;5012768;28;20467;-70
2023/03/11 06:42:57;;;;;;;9.33;1.97;;;;;;;-145.18;100.00;47848.19;5012285;28;20025;-71
2023/03/11 06:45:23;;;;;;;8.40;2.37;;;;;;;-145.18;100.00;47842.34;5026969;28;20040;-71
2023/03/11 06:47:48;;;;;;;8.67;2.20;;;;;;;-145.18;100.00;47846.25;5012204;28;20061;-71
2023/03/11 06:50:14;;;;;;;6.20;1.57;;;;;;;-145.18;100.00;47871.66;5012517;28;20490;-71
2023/03/11 06:52:39;;;;;;;6.57;2.20;;;;;;;-145.18;100.00;47844.28;5012141;28;20030;-71
2023/03/11 06:55:05;;;;;;;7.33;1.47;;;;;;;-145.18;100.00;47863.84;5025585;28;20044;-71
2023/03/11 06:57:32;;;;;;;3.77;1.77;;;;;;;-145.18;100.00;47857.97;5031989;28;20042;-71
2023/03/11 06:59:57;;;;;;;6.82;1.90;;;;;;;-145.18;100.00;47856.03;5032005;28;20259;-70
2023/03/11 07:02:23;;;;;;;6.33;1.50;;;;;;;-145.18;100.00;47865.78;5031559;28;20038;-71
2023/03/11 07:04:48;;;;;;;5.37;1.47;;;;;;;-145.18;100.00;47834.53;5017589;28;20044;-71
2023/03/11 07:07:14;;;;;;;5.20;1.50;;;;;;;-145.18;100.00;47863.84;5012340;28;20371;-71
2023/03/11 07:09:39;;;;;;;5.63;1.73;;;;;;;-145.18;100.00;47830.63;5008671;28;20459;-71
2023/03/11 07:12:04;;;;;;;10.03;1.73;;;;;;;-145.18;100.00;47844.28;5011122;28;20029;-71
2023/03/11 07:14:30;;;;;;;3.27;1.20;;;;;;;-145.18;100.00;47832.56;5012216;28;20046;-71
2023/03/11 07:16:55;;;;;;;5.07;1.60;;;;;;;-145.18;100.00;47844.28;5011779;28;20034;-71
2023/03/11 07:19:21;;;;;;;6.20;1.93;;;;;;;-145.18;100.00;47797.41;5011796;28;20049;-71
2023/03/11 07:21:46;;;;;;;5.60;1.50;;;;;;;-145.18;100.00;47830.63;5011025;28;20049;-71
2023/03/11 07:24:13;;;;;;;5.97;1.57;;;;;;;-145.18;100.00;47820.84;5001446;28;20037;-71
2023/03/11 07:26:40;;;;;;;6.97;1.40;;;;;;;-145.18;100.00;47816.94;5031850;28;20026;-71
2023/03/11 07:29:05;;;;;;;5.55;1.30;;;;;;;-145.18;100.00;47816.94;5030958;28;20037;-71
2023/03/11 07:31:33;;;;;;;4.73;1.43;;;;;;;-145.18;100.00;47785.69;5030909;28;20032;-70
2023/03/11 07:34:04;;;;;;;7.70;2.13;;;;;;;-145.18;100.00;47801.31;5014486;28;20058;-70
2023/03/11 07:36:30;;;;;;;6.10;2.67;;;;;;;-145.18;100.00;47793.50;5011744;28;20100;-71
2023/03/11 07:38:58;;;;;;;5.10;1.77;;;;;;;-145.18;100.00;47772.00;5011110;28;20073;-71
2023/03/11 07:41:24;;;;;;;4.57;1.52;;;;;;;-145.18;100.00;47758.31;5011308;28;20041;-71
2023/03/11 07:43:54;;;;;;;7.82;2.13;;;;;;;-145.18;100.00;47773.97;5023459;28;20111;-72
2023/03/11 07:46:21;;;;;;;8.03;3.60;;;;;;;-145.18;100.00;47772.00;5031154;28;20152;-71
2023/03/11 07:48:47;;;;;;;13.90;4.75;;;;;;;-145.18;100.00;47750.50;5030930;28;20298;-71
2023/03/11 07:51:25;;;;;;;8.88;4.63;;;;;;;-145.18;100.00;47719.25;5031157;28;20037;-71
2023/03/11 07:53:52;;;;;;;10.23;2.70;;;;;;;-145.18;100.00;47713.38;5016859;28;20042;-71
2023/03/11 07:56:18;;;;;;;10.55;4.13;;;;;;;-145.18;100.00;47695.81;5009205;28;20833;-71
2023/03/11 07:58:44;;;;;;;7.83;2.60;;;;;;;-145.18;100.00;47697.75;5010867;28;20033;-71
2023/03/11 08:01:15;;;;;;;11.02;2.35;;;;;;;-145.18;100.00;47674.31;5011298;28;20418;-71
2023/03/11 08:03:43;;;;;;;7.03;1.60;;;;;;;-145.18;100.00;47682.13;5010525;28;20057;-71
2023/03/11 08:06:17;;;;;;;9.57;1.63;;;;;;;-145.18;100.00;47684.06;5009794;28;20038;-71
2023/03/11 08:08:43;;;;;;;9.00;2.00;;;;;;;-145.18;100.00;47648.91;5007181;28;20282;-71
2023/03/11 08:11:11;;;;;;;10.67;1.70;;;;;;;-145.18;100.00;47684.06;5010683;28;20628;-71
2023/03/11 08:13:37;;;;;;;5.03;1.47;;;;;;;-145.18;100.00;47682.13;5021658;28;20370;-71
2023/03/11 08:16:04;;;;;;;5.73;1.70;;;;;;;-145.18;100.00;47648.91;5029902;28;20338;-71
2023/03/11 08:18:30;;;;;;;5.97;1.87;;;;;;;-145.18;100.00;47662.59;5015390;28;20537;-71
2023/03/11 08:20:56;;;;;;;6.17;1.83;;;;;;;-145.18;100.00;47660.63;4993318;28;20338;-71
2023/03/11 08:23:21;;;;;;;8.47;1.80;;;;;;;-145.18;100.00;47637.19;5021585;28;20281;-71
2023/03/11 08:25:47;;;;;;;9.03;1.83;;;;;;;-145.18;100.00;47672.34;5030370;28;20164;-71
2023/03/11 08:28:12;;;;;;;4.53;1.50;;;;;;;-145.18;100.00;47656.72;5029882;28;20044;-71
2023/03/11 08:30:38;;;;;;;5.07;1.53;;;;;;;-145.18;100.00;47645.00;5027873;28;20486;-71
2023/03/11 08:33:03;;;;;;;9.83;1.87;;;;;;;-145.18;100.00;47645.00;5018616;28;20120;-71
2023/03/11 08:35:29;;;;;;;9.20;1.77;;;;;;;-145.18;100.00;47650.88;5030490;28;20044;-72
2023/03/11 08:37:55;;;;;;;6.27;1.53;;;;;;;-145.18;100.00;47654.78;5026007;28;20087;-73
2023/03/11 08:40:20;;;;;;;8.87;2.17;;;;;;;-145.18;100.00;47641.09;5009089;28;20528;-73
2023/03/11 08:42:45;;;;;;;9.57;1.50;;;;;;;-145.18;100.00;47635.22;5010032;28;20038;-74
2023/03/11 08:45:11;;;;;;;6.03;1.40;;;;;;;-145.18;100.00;47648.91;5009687;28;20407;-77
2023/03/11 08:47:37;;;;;;;7.73;1.97;;;;;;;-145.18;100.00;47627.41;5010506;28;20030;-78
2023/03/11 08:50:10;;;;;;;6.13;1.40;;;;;;;-145.18;100.00;47613.75;5009811;28;20033;-80
2023/03/11 08:52:35;;;;;;;4.77;1.57;;;;;;;-145.18;100.00;47615.69;4999691;28;20350;-78
2023/03/11 08:55:01;;;;;;;3.50;1.10;;;;;;;-145.18;100.00;47600.06;5029300;28;20350;-77
2023/03/11 08:57:26;;;;;;;12.03;1.87;;;;;;;-145.18;100.00;47598.09;5029567;28;20401;-77
2023/03/11 08:59:52;;;;;;;7.00;1.23;;;;;;;-145.18;100.00;47582.47;5009642;28;20482;-78
2023/03/11 09:02:17;;;;;;;4.87;1.07;;;;;;;-145.18;100.00;47596.16;4978960;28;20046;-78
2023/03/11 09:04:42;;;;;;;5.03;0.87;;;;;;;-145.18;100.00;47621.56;5010102;28;20080;-77
2023/03/11 09:07:10;;;;;;;2.57;0.87;;;;;;;-145.18;100.00;47611.78;5025527;28;20065;-77
2023/03/11 09:09:36;;;;;;;8.20;1.30;;;;;;;-145.18;100.00;47590.28;5009927;28;20044;-77
2023/03/11 09:12:01;;;;;;;4.37;0.77;;;;;;;-145.18;100.00;47590.28;5015913;28;20287;-76
2023/03/11 09:14:26;;;;;;;2.90;0.70;;;;;;;-145.18;100.00;47578.56;5009542;28;20041;-76
2023/03/11 09:16:52;;;;;;;7.93;0.60;;;;;;;-145.18;100.00;47582.47;5016539;28;20040;-75
2023/03/11 09:19:17;;;;;;;3.77;0.60;;;;;;;-145.18;100.00;47561.00;5010326;28;20088;-74
2023/03/11 09:21:42;;;;;;;8.53;0.83;;;;;;;-145.18;100.00;47574.66;4967471;28;20060;-74
2023/03/11 09:24:08;;;;;;;6.03;0.90;;;;;;;-145.18;100.00;47549.25;5024585;28;20113;-73
2023/03/11 09:26:33;;;;;;;4.90;0.70;;;;;;;-145.18;100.00;47568.81;5028955;28;20111;-72
2023/03/11 09:28:58;;;;;;;5.70;0.73;;;;;;;-145.18;100.00;47588.34;5031662;28;20044;-71
2023/03/11 09:31:24;;;;;;;9.37;1.23;;;;;;;-145.18;100.00;47578.56;5021213;28;20597;-72
2023/03/11 09:33:51;;;;;;;4.63;0.70;;;;;;;-145.18;100.00;47574.66;5013595;28;20038;-72
2023/03/11 09:36:19;;;;;;;7.03;0.87;;;;;;;-145.18;100.00;47574.66;5014060;28;20030;-71
2023/03/11 09:38:45;;;;;;;7.07;0.90;;;;;;;-145.18;100.00;47580.53;5013726;28;20366;-72
2023/03/11 09:41:17;;;;;;;6.00;0.90;;;;;;;-145.18;100.00;47578.56;5017624;28;20944;-71
2023/03/11 09:43:45;;;;;;;4.37;0.80;;;;;;;-145.18;100.00;47572.72;5033490;28;20277;-71
2023/03/11 09:46:13;;;;;;;3.60;1.33;;;;;;;-145.18;100.00;47580.53;5033299;28;20278;-72
2023/03/11 09:49:03;;;;;;;3.83;0.50;;;;;;;-145.18;100.00;47578.56;5033512;28;20295;-71
2023/03/11 09:51:34;;;;;;;7.07;0.63;;;;;;;-145.18;100.00;47570.75;5019394;28;20366;-72
2023/03/11 09:54:09;;;;;;;10.87;1.10;;;;;;;-145.18;100.00;47568.81;5013733;28;20371;-72
2023/03/11 09:56:37;;;;;;;3.10;1.10;;;;;;;-145.18;100.00;47590.28;5027942;28;20335;-72
2023/03/11 09:59:28;;;;;;;6.00;0.70;;;;;;;-145.18;100.00;47574.66;5033224;28;20765;-72
2023/03/11 10:01:53;;;;;;;4.73;0.73;;;;;;;-145.18;100.00;47561.00;5005665;28;20655;-72
2023/03/11 10:04:40;;;;;;;7.10;0.97;;;;;;;-145.18;100.00;47561.00;4995814;28;20283;-72
2023/03/11 10:07:14;;;;;;;4.33;0.90;;;;;;;-145.18;100.00;47535.59;4994791;28;20034;-73
2023/03/11 10:09:53;;;;;;;6.47;1.37;;;;;;;-145.18;100.00;47559.03;4993502;28;20284;-73
2023/03/11 10:12:19;;;;;;;6.73;1.00;;;;;;;-145.18;100.00;47553.16;5005950;28;20271;-73
2023/03/11 10:15:03;;;;;;;2.33;0.90;;;;;;;-145.18;100.00;47541.44;5011754;28;20779;-73
2023/03/11 10:18:00;;;;;;;6.30;0.80;;;;;;;-145.18;100.00;47537.53;4973564;28;20034;-73
2023/03/11 10:20:50;;;;;;;5.00;1.27;;;;;;;-145.18;100.00;47521.91;4995346;28;20280;-73
2023/03/11 10:23:50;;;;;;;7.87;0.87;;;;;;;-145.18;100.00;47512.16;5009063;28;20077;-73
2023/03/11 10:26:28;;;;;;;9.13;0.90;;;;;;;-145.18;99.30;47518.00;4994977;28;20259;-72
2023/03/11 10:29:15;;;;;;;5.83;0.77;;;;;;;-145.18;97.19;47551.22;4995328;28;20292;-72
2023/03/11 10:31:50;;;;;;;8.70;0.90;;;;;;;-145.18;100.00;47561.00;5006750;28;20311;-72
2023/03/11 10:34:15;;;;;;;5.40;0.77;;;;;;;-145.18;100.00;47527.78;5011551;28;20361;-72
2023/03/11 10:37:00;;;;;;;3.97;0.80;;;;;;;-145.18;100.00;47531.69;4996156;28;20875;-72
2023/03/11 10:39:27;;;;;;;8.70;1.50;;;;;;;-145.18;100.00;47543.41;4992624;28;20018;-73
2023/03/11 10:42:02;;;;;;;7.27;0.80;;;;;;;-145.18;100.00;47527.78;4994345;28;20354;-72
2023/03/11 10:44:36;;;;;;;5.60;1.20;;;;;;;-145.18;99.93;47498.47;4990332;28;20267;-73
2023/03/11 10:47:02;;;;;;;9.53;0.90;;;;;;;-145.18;100.00;47539.50;4987854;28;20084;-73
2023/03/11 10:49:29;;;;;;;3.43;0.70;;;;;;;-145.18;99.99;47551.22;4991549;28;20320;-72
2023/03/11 10:51:56;;;;;;;5.13;0.90;;;;;;;-145.18;100.00;47539.50;5005920;28;20037;-73
2023/03/11 10:54:31;;;;;;;2.23;0.90;;;;;;;-145.18;100.00;47531.69;5011594;28;20275;-73
2023/03/11 10:57:02;;;;;;;5.07;0.70;;;;;;;-145.18;98.49;47519.97;4997021;28;20268;-73
2023/03/11 10:59:43;;;;;;;4.83;0.80;;;;;;;-145.18;97.86;47549.25;4992356;28;20041;-72
2023/03/11 11:02:24;;;;;;;10.97;0.90;;;;;;;-145.18;95.84;47557.06;5008474;28;20317;-73
2023/03/11 11:05:17;;;;;;;9.10;1.20;;;;;;;-145.18;100.00;47510.19;4985242;28;20287;-72
2023/03/11 11:07:44;;;;;;;5.10;0.70;;;;;;;-145.18;100.00;47525.81;4991712;28;20351;-72
2023/03/11 11:10:27;;;;;;;7.73;1.30;;;;;;;-145.18;99.58;47506.28;4990139;28;20268;-73
2023/03/11 11:13:11;;;;;;;15.33;3.07;;;;;;;-145.18;100.00;47508.22;4986741;28;20279;-73